sensor_id;sensor_type;location;lat;lon;timestamp;P1;durP1;ratioP1;P2;durP2;ratioP2
9563;SDS011;4820;50.870;4.702;2023-10-13T00:00:26;21.30;;;17.08;;
9563;SDS011;4820;50.870;4.702;2023-10-13T00:02:57;17.45;;;15.52;;
9563;SDS011;4820;50.870;4.702;2023-10-13T00:05:29;20.25;;;16.15;;
9563;SDS011;4820;50.870;4.702;2023-10-13T00:07:59;21.73;;;16.67;;
9563;SDS011;4820;50.870;4.702;2023-10-13T00:10:32;19.73;;;16.58;;
9563;SDS011;4820;50.870;4.702;2023-10-13T00:12:59;18.45;;;15.95;;
9563;SDS011;4820;50.870;4.702;2023-10-13T00:15:38;21.45;;;16.35;;
9563;SDS011;4820;50.870;4.702;2023-10-13T00:18:09;19.10;;;16.15;;
9563;SDS011;4820;50.870;4.702;2023-10-13T00:20:39;21.08;;;17.08;;
9563;SDS011;4820;50.870;4.702;2023-10-13T00:23:06;17.85;;;15.85;;
9563;SDS011;4820;50.870;4.702;2023-10-13T00:25:32;20.23;;;16.13;;
9563;SDS011;4820;50.870;4.702;2023-10-13T00:28:08;17.35;;;15.23;;
9563;SDS011;4820;50.870;4.702;2023-10-13T00:30:35;16.48;;;14.77;;
9563;SDS011;4820;50.870;4.702;2023-10-13T00:33:02;17.75;;;14.93;;
9563;SDS011;4820;50.870;4.702;2023-10-13T00:35:29;17.35;;;14.70;;
9563;SDS011;4820;50.870;4.702;2023-10-13T00:38:01;17.73;;;15.82;;
9563;SDS011;4820;50.870;4.702;2023-10-13T00:40:42;17.67;;;14.93;;
9563;SDS011;4820;50.870;4.702;2023-10-13T00:43:17;18.85;;;15.00;;
9563;SDS011;4820;50.870;4.702;2023-10-13T00:45:44;17.42;;;14.90;;
9563;SDS011;4820;50.870;4.702;2023-10-13T00:48:13;18.73;;;14.73;;
9563;SDS011;4820;50.870;4.702;2023-10-13T00:50:39;15.95;;;13.65;;
9563;SDS011;4820;50.870;4.702;2023-10-13T00:53:06;20.42;;;14.93;;
9563;SDS011;4820;50.870;4.702;2023-10-13T00:55:33;20.05;;;14.40;;
9563;SDS011;4820;50.870;4.702;2023-10-13T00:57:59;15.40;;;13.38;;
9563;SDS011;4820;50.870;4.702;2023-10-13T01:00:29;16.95;;;15.00;;
9563;SDS011;4820;50.870;4.702;2023-10-13T01:02:55;16.55;;;14.60;;
9563;SDS011;4820;50.870;4.702;2023-10-13T01:05:24;14.75;;;12.95;;
9563;SDS011;4820;50.870;4.702;2023-10-13T01:07:51;17.80;;;13.85;;
9563;SDS011;4820;50.870;4.702;2023-10-13T01:10:20;13.15;;;11.73;;
9563;SDS011;4820;50.870;4.702;2023-10-13T01:12:51;13.13;;;11.77;;
9563;SDS011;4820;50.870;4.702;2023-10-13T01:15:20;19.45;;;14.55;;
9563;SDS011;4820;50.870;4.702;2023-10-13T01:17:47;16.83;;;13.25;;
9563;SDS011;4820;50.870;4.702;2023-10-13T01:20:13;13.32;;;11.93;;
9563;SDS011;4820;50.870;4.702;2023-10-13T01:22:46;12.82;;;11.25;;
9563;SDS011;4820;50.870;4.702;2023-10-13T01:25:22;15.80;;;13.68;;
9563;SDS011;4820;50.870;4.702;2023-10-13T01:27:53;16.30;;;13.20;;
9563;SDS011;4820;50.870;4.702;2023-10-13T01:30:19;15.50;;;12.85;;
9563;SDS011;4820;50.870;4.702;2023-10-13T01:32:52;13.68;;;12.23;;
9563;SDS011;4820;50.870;4.702;2023-10-13T01:35:19;14.07;;;12.40;;
9563;SDS011;4820;50.870;4.702;2023-10-13T01:37:52;18.08;;;12.80;;
9563;SDS011;4820;50.870;4.702;2023-10-13T01:40:18;17.55;;;12.65;;
9563;SDS011;4820;50.870;4.702;2023-10-13T01:42:48;16.67;;;12.43;;
9563;SDS011;4820;50.870;4.702;2023-10-13T01:45:20;15.98;;;13.07;;
9563;SDS011;4820;50.870;4.702;2023-10-13T01:47:46;17.85;;;13.10;;
9563;SDS011;4820;50.870;4.702;2023-10-13T01:50:15;13.88;;;11.80;;
9563;SDS011;4820;50.870;4.702;2023-10-13T01:52:52;14.65;;;11.25;;
9563;SDS011;4820;50.870;4.702;2023-10-13T01:55:40;15.70;;;11.70;;
9563;SDS011;4820;50.870;4.702;2023-10-13T01:58:13;13.18;;;11.75;;
9563;SDS011;4820;50.870;4.702;2023-10-13T02:00:48;13.98;;;11.93;;
9563;SDS011;4820;50.870;4.702;2023-10-13T02:03:14;15.57;;;11.73;;
9563;SDS011;4820;50.870;4.702;2023-10-13T02:05:43;15.57;;;12.10;;
9563;SDS011;4820;50.870;4.702;2023-10-13T02:08:17;16.20;;;12.38;;
9563;SDS011;4820;50.870;4.702;2023-10-13T02:10:53;16.63;;;12.32;;
9563;SDS011;4820;50.870;4.702;2023-10-13T02:13:20;16.60;;;13.10;;
9563;SDS011;4820;50.870;4.702;2023-10-13T02:15:48;18.58;;;12.63;;
9563;SDS011;4820;50.870;4.702;2023-10-13T02:18:18;13.30;;;11.90;;
9563;SDS011;4820;50.870;4.702;2023-10-13T02:21:02;15.85;;;11.90;;
9563;SDS011;4820;50.870;4.702;2023-10-13T02:23:37;15.60;;;12.10;;
9563;SDS011;4820;50.870;4.702;2023-10-13T02:26:08;16.38;;;13.15;;
9563;SDS011;4820;50.870;4.702;2023-10-13T02:28:41;14.93;;;12.15;;
9563;SDS011;4820;50.870;4.702;2023-10-13T02:31:06;16.58;;;11.82;;
9563;SDS011;4820;50.870;4.702;2023-10-13T02:33:32;14.15;;;12.13;;
9563;SDS011;4820;50.870;4.702;2023-10-13T02:36:00;13.98;;;11.95;;
9563;SDS011;4820;50.870;4.702;2023-10-13T02:38:33;14.50;;;11.65;;
9563;SDS011;4820;50.870;4.702;2023-10-13T02:41:16;16.50;;;11.80;;
9563;SDS011;4820;50.870;4.702;2023-10-13T02:44:06;14.50;;;11.40;;
9563;SDS011;4820;50.870;4.702;2023-10-13T02:46:33;15.38;;;11.55;;
9563;SDS011;4820;50.870;4.702;2023-10-13T02:49:06;14.60;;;11.18;;
9563;SDS011;4820;50.870;4.702;2023-10-13T02:51:36;14.98;;;11.68;;
9563;SDS011;4820;50.870;4.702;2023-10-13T02:54:02;15.57;;;11.13;;
9563;SDS011;4820;50.870;4.702;2023-10-13T02:56:34;17.17;;;11.35;;
9563;SDS011;4820;50.870;4.702;2023-10-13T02:59:01;17.08;;;11.55;;
9563;SDS011;4820;50.870;4.702;2023-10-13T03:01:34;15.52;;;11.30;;
9563;SDS011;4820;50.870;4.702;2023-10-13T03:04:04;16.33;;;11.35;;
9563;SDS011;4820;50.870;4.702;2023-10-13T03:06:34;16.70;;;11.02;;
9563;SDS011;4820;50.870;4.702;2023-10-13T03:09:09;16.05;;;11.15;;
9563;SDS011;4820;50.870;4.702;2023-10-13T03:11:43;16.73;;;11.45;;
9563;SDS011;4820;50.870;4.702;2023-10-13T03:16:56;14.80;;;11.20;;
9563;SDS011;4820;50.870;4.702;2023-10-13T03:19:41;18.45;;;11.05;;
9563;SDS011;4820;50.870;4.702;2023-10-13T03:22:17;18.20;;;11.57;;
9563;SDS011;4820;50.870;4.702;2023-10-13T03:24:44;16.85;;;11.40;;
9563;SDS011;4820;50.870;4.702;2023-10-13T03:27:18;14.07;;;10.63;;
9563;SDS011;4820;50.870;4.702;2023-10-13T03:29:49;16.05;;;11.23;;
9563;SDS011;4820;50.870;4.702;2023-10-13T03:32:21;13.18;;;9.85;;
9563;SDS011;4820;50.870;4.702;2023-10-13T03:34:51;15.70;;;10.27;;
9563;SDS011;4820;50.870;4.702;2023-10-13T03:37:25;19.08;;;10.80;;
9563;SDS011;4820;50.870;4.702;2023-10-13T03:40:04;16.27;;;10.15;;
9563;SDS011;4820;50.870;4.702;2023-10-13T03:42:49;14.82;;;10.18;;
9563;SDS011;4820;50.870;4.702;2023-10-13T03:45:41;15.63;;;10.00;;
9563;SDS011;4820;50.870;4.702;2023-10-13T03:48:16;14.98;;;10.75;;
9563;SDS011;4820;50.870;4.702;2023-10-13T03:51:06;13.02;;;9.35;;
9563;SDS011;4820;50.870;4.702;2023-10-13T03:53:35;15.25;;;10.52;;
9563;SDS011;4820;50.870;4.702;2023-10-13T03:56:17;14.77;;;9.75;;
9563;SDS011;4820;50.870;4.702;2023-10-13T03:58:56;15.32;;;9.60;;
9563;SDS011;4820;50.870;4.702;2023-10-13T04:01:34;17.23;;;9.63;;
9563;SDS011;4820;50.870;4.702;2023-10-13T04:04:10;14.82;;;9.48;;
9563;SDS011;4820;50.870;4.702;2023-10-13T04:06:37;14.13;;;9.70;;
9563;SDS011;4820;50.870;4.702;2023-10-13T04:09:09;13.48;;;9.38;;
9563;SDS011;4820;50.870;4.702;2023-10-13T04:14:27;16.92;;;8.95;;
9563;SDS011;4820;50.870;4.702;2023-10-13T04:17:12;12.10;;;8.57;;
9563;SDS011;4820;50.870;4.702;2023-10-13T04:19:47;13.65;;;7.38;;
9563;SDS011;4820;50.870;4.702;2023-10-13T04:22:35;11.30;;;7.63;;
9563;SDS011;4820;50.870;4.702;2023-10-13T04:25:14;13.43;;;7.75;;
9563;SDS011;4820;50.870;4.702;2023-10-13T04:28:01;13.40;;;6.30;;
9563;SDS011;4820;50.870;4.702;2023-10-13T04:30:49;12.45;;;6.78;;
9563;SDS011;4820;50.870;4.702;2023-10-13T04:33:22;11.82;;;6.10;;
9563;SDS011;4820;50.870;4.702;2023-10-13T04:36:04;10.80;;;6.88;;
9563;SDS011;4820;50.870;4.702;2023-10-13T04:38:50;11.93;;;6.40;;
9563;SDS011;4820;50.870;4.702;2023-10-13T04:44:05;14.95;;;6.65;;
9563;SDS011;4820;50.870;4.702;2023-10-13T04:46:50;12.77;;;6.90;;
9563;SDS011;4820;50.870;4.702;2023-10-13T04:49:15;11.45;;;6.60;;
9563;SDS011;4820;50.870;4.702;2023-10-13T04:51:59;10.93;;;6.28;;
9563;SDS011;4820;50.870;4.702;2023-10-13T04:57:20;11.35;;;6.05;;
9563;SDS011;4820;50.870;4.702;2023-10-13T04:59:47;14.35;;;5.80;;
9563;SDS011;4820;50.870;4.702;2023-10-13T05:02:31;11.95;;;6.57;;
9563;SDS011;4820;50.870;4.702;2023-10-13T05:05:01;13.90;;;6.78;;
9563;SDS011;4820;50.870;4.702;2023-10-13T05:07:31;13.50;;;6.13;;
9563;SDS011;4820;50.870;4.702;2023-10-13T05:10:15;10.18;;;5.88;;
9563;SDS011;4820;50.870;4.702;2023-10-13T05:13:00;8.40;;;5.40;;
9563;SDS011;4820;50.870;4.702;2023-10-13T05:15:46;12.10;;;6.40;;
9563;SDS011;4820;50.870;4.702;2023-10-13T05:18:32;12.30;;;5.68;;
9563;SDS011;4820;50.870;4.702;2023-10-13T05:21:16;12.60;;;6.72;;
9563;SDS011;4820;50.870;4.702;2023-10-13T05:24:02;10.32;;;6.20;;
9563;SDS011;4820;50.870;4.702;2023-10-13T05:26:46;9.52;;;6.07;;
9563;SDS011;4820;50.870;4.702;2023-10-13T05:29:31;12.23;;;6.20;;
9563;SDS011;4820;50.870;4.702;2023-10-13T05:32:15;10.55;;;6.18;;
9563;SDS011;4820;50.870;4.702;2023-10-13T05:34:59;10.65;;;6.35;;
9563;SDS011;4820;50.870;4.702;2023-10-13T05:37:43;11.80;;;5.85;;
9563;SDS011;4820;50.870;4.702;2023-10-13T05:40:27;10.98;;;6.30;;
9563;SDS011;4820;50.870;4.702;2023-10-13T05:43:12;11.05;;;5.93;;
9563;SDS011;4820;50.870;4.702;2023-10-13T05:46:00;10.77;;;6.32;;
9563;SDS011;4820;50.870;4.702;2023-10-13T05:48:47;12.98;;;6.70;;
9563;SDS011;4820;50.870;4.702;2023-10-13T05:51:21;14.95;;;6.40;;
9563;SDS011;4820;50.870;4.702;2023-10-13T05:54:05;12.77;;;6.15;;
9563;SDS011;4820;50.870;4.702;2023-10-13T05:59:28;13.93;;;6.35;;
9563;SDS011;4820;50.870;4.702;2023-10-13T06:02:14;13.77;;;6.50;;
9563;SDS011;4820;50.870;4.702;2023-10-13T06:05:03;13.82;;;6.22;;
9563;SDS011;4820;50.870;4.702;2023-10-13T06:07:49;17.48;;;6.68;;
9563;SDS011;4820;50.870;4.702;2023-10-13T06:10:33;10.63;;;6.47;;
9563;SDS011;4820;50.870;4.702;2023-10-13T06:13:18;15.00;;;6.85;;
9563;SDS011;4820;50.870;4.702;2023-10-13T06:16:09;15.88;;;6.13;;
9563;SDS011;4820;50.870;4.702;2023-10-13T06:18:54;12.73;;;6.28;;
9563;SDS011;4820;50.870;4.702;2023-10-13T06:21:39;15.00;;;6.63;;
9563;SDS011;4820;50.870;4.702;2023-10-13T06:24:23;15.18;;;6.85;;
9563;SDS011;4820;50.870;4.702;2023-10-13T06:27:08;11.05;;;6.10;;
9563;SDS011;4820;50.870;4.702;2023-10-13T06:29:52;12.98;;;6.40;;
9563;SDS011;4820;50.870;4.702;2023-10-13T06:32:20;11.80;;;6.10;;
9563;SDS011;4820;50.870;4.702;2023-10-13T06:34:57;14.23;;;6.32;;
9563;SDS011;4820;50.870;4.702;2023-10-13T06:37:26;17.48;;;6.75;;
9563;SDS011;4820;50.870;4.702;2023-10-13T06:40:03;11.30;;;6.18;;
9563;SDS011;4820;50.870;4.702;2023-10-13T06:42:46;10.50;;;5.82;;
9563;SDS011;4820;50.870;4.702;2023-10-13T06:45:12;16.02;;;6.68;;
9563;SDS011;4820;50.870;4.702;2023-10-13T06:47:38;12.25;;;6.28;;
9563;SDS011;4820;50.870;4.702;2023-10-13T06:50:08;12.77;;;6.25;;
9563;SDS011;4820;50.870;4.702;2023-10-13T06:52:43;12.10;;;6.35;;
9563;SDS011;4820;50.870;4.702;2023-10-13T06:55:10;12.02;;;5.97;;
9563;SDS011;4820;50.870;4.702;2023-10-13T06:57:43;12.50;;;5.82;;
9563;SDS011;4820;50.870;4.702;2023-10-13T07:00:10;14.00;;;6.03;;
9563;SDS011;4820;50.870;4.702;2023-10-13T07:02:50;12.95;;;6.13;;
9563;SDS011;4820;50.870;4.702;2023-10-13T07:05:18;13.65;;;6.32;;
9563;SDS011;4820;50.870;4.702;2023-10-13T07:07:44;12.88;;;6.30;;
9563;SDS011;4820;50.870;4.702;2023-10-13T07:10:11;12.27;;;6.40;;
9563;SDS011;4820;50.870;4.702;2023-10-13T07:12:37;13.15;;;6.15;;
9563;SDS011;4820;50.870;4.702;2023-10-13T07:15:09;14.27;;;6.15;;
9563;SDS011;4820;50.870;4.702;2023-10-13T07:17:39;16.42;;;6.22;;
9563;SDS011;4820;50.870;4.702;2023-10-13T07:20:06;14.60;;;5.90;;
9563;SDS011;4820;50.870;4.702;2023-10-13T07:22:48;17.60;;;6.07;;
9563;SDS011;4820;50.870;4.702;2023-10-13T07:25:23;10.90;;;5.80;;
9563;SDS011;4820;50.870;4.702;2023-10-13T07:27:51;14.68;;;6.35;;
9563;SDS011;4820;50.870;4.702;2023-10-13T07:30:19;16.17;;;6.63;;
9563;SDS011;4820;50.870;4.702;2023-10-13T07:32:45;14.10;;;5.90;;
9563;SDS011;4820;50.870;4.702;2023-10-13T07:35:14;11.57;;;6.07;;
9563;SDS011;4820;50.870;4.702;2023-10-13T07:37:45;11.70;;;6.32;;
9563;SDS011;4820;50.870;4.702;2023-10-13T07:40:13;13.25;;;6.38;;
9563;SDS011;4820;50.870;4.702;2023-10-13T07:42:51;12.45;;;6.03;;
9563;SDS011;4820;50.870;4.702;2023-10-13T07:45:29;14.25;;;6.63;;
9563;SDS011;4820;50.870;4.702;2023-10-13T07:48:04;12.77;;;6.88;;
9563;SDS011;4820;50.870;4.702;2023-10-13T07:51:03;11.15;;;5.97;;
9563;SDS011;4820;50.870;4.702;2023-10-13T07:53:33;13.25;;;6.18;;
9563;SDS011;4820;50.870;4.702;2023-10-13T07:56:05;15.80;;;6.25;;
9563;SDS011;4820;50.870;4.702;2023-10-13T07:58:36;15.13;;;6.13;;
9563;SDS011;4820;50.870;4.702;2023-10-13T08:01:28;13.00;;;5.47;;
9563;SDS011;4820;50.870;4.702;2023-10-13T08:03:54;13.07;;;6.07;;
9563;SDS011;4820;50.870;4.702;2023-10-13T08:06:29;11.00;;;6.13;;
9563;SDS011;4820;50.870;4.702;2023-10-13T08:08:56;16.17;;;6.50;;
9563;SDS011;4820;50.870;4.702;2023-10-13T08:11:32;8.75;;;5.93;;
9563;SDS011;4820;50.870;4.702;2023-10-13T08:14:05;9.85;;;5.95;;
9563;SDS011;4820;50.870;4.702;2023-10-13T08:16:42;12.82;;;6.20;;
9563;SDS011;4820;50.870;4.702;2023-10-13T08:19:14;12.23;;;6.35;;
9563;SDS011;4820;50.870;4.702;2023-10-13T08:21:44;11.68;;;6.15;;
9563;SDS011;4820;50.870;4.702;2023-10-13T08:24:19;11.20;;;6.20;;
9563;SDS011;4820;50.870;4.702;2023-10-13T08:27:06;11.75;;;6.22;;
9563;SDS011;4820;50.870;4.702;2023-10-13T08:29:51;13.80;;;6.20;;
9563;SDS011;4820;50.870;4.702;2023-10-13T08:32:16;16.77;;;6.60;;
9563;SDS011;4820;50.870;4.702;2023-10-13T08:34:49;12.68;;;6.50;;
9563;SDS011;4820;50.870;4.702;2023-10-13T08:37:17;10.00;;;5.90;;
9563;SDS011;4820;50.870;4.702;2023-10-13T08:39:50;9.57;;;6.28;;
9563;SDS011;4820;50.870;4.702;2023-10-13T08:42:43;12.40;;;6.35;;
9563;SDS011;4820;50.870;4.702;2023-10-13T08:45:10;11.25;;;6.35;;
9563;SDS011;4820;50.870;4.702;2023-10-13T08:47:49;10.70;;;6.25;;
9563;SDS011;4820;50.870;4.702;2023-10-13T08:50:35;14.93;;;6.25;;
9563;SDS011;4820;50.870;4.702;2023-10-13T08:53:32;15.65;;;6.47;;
9563;SDS011;4820;50.870;4.702;2023-10-13T08:58:38;15.23;;;6.60;;
9563;SDS011;4820;50.870;4.702;2023-10-13T09:01:20;11.95;;;6.63;;
9563;SDS011;4820;50.870;4.702;2023-10-13T09:04:01;11.90;;;6.05;;
9563;SDS011;4820;50.870;4.702;2023-10-13T09:06:56;13.23;;;6.32;;
9563;SDS011;4820;50.870;4.702;2023-10-13T09:09:33;11.45;;;7.15;;
9563;SDS011;4820;50.870;4.702;2023-10-13T09:12:25;14.93;;;6.82;;
9563;SDS011;4820;50.870;4.702;2023-10-13T09:14:59;11.90;;;7.07;;
9563;SDS011;4820;50.870;4.702;2023-10-13T09:17:42;10.38;;;6.32;;
9563;SDS011;4820;50.870;4.702;2023-10-13T09:20:38;13.02;;;7.00;;
9563;SDS011;4820;50.870;4.702;2023-10-13T09:23:13;16.00;;;6.75;;
9563;SDS011;4820;50.870;4.702;2023-10-13T09:26:09;11.75;;;6.40;;
9563;SDS011;4820;50.870;4.702;2023-10-13T09:28:35;13.88;;;6.57;;
9563;SDS011;4820;50.870;4.702;2023-10-13T09:31:02;13.70;;;7.20;;
9563;SDS011;4820;50.870;4.702;2023-10-13T09:33:33;12.00;;;6.38;;
9563;SDS011;4820;50.870;4.702;2023-10-13T09:36:04;12.18;;;6.57;;
9563;SDS011;4820;50.870;4.702;2023-10-13T09:38:35;17.73;;;6.70;;
9563;SDS011;4820;50.870;4.702;2023-10-13T09:41:06;10.82;;;6.40;;
9563;SDS011;4820;50.870;4.702;2023-10-13T09:43:51;13.70;;;6.20;;
9563;SDS011;4820;50.870;4.702;2023-10-13T09:46:21;15.70;;;7.07;;
9563;SDS011;4820;50.870;4.702;2023-10-13T09:48:54;11.05;;;6.45;;
9563;SDS011;4820;50.870;4.702;2023-10-13T09:51:39;12.07;;;6.38;;
9563;SDS011;4820;50.870;4.702;2023-10-13T09:56:45;14.48;;;6.90;;
9563;SDS011;4820;50.870;4.702;2023-10-13T09:59:18;14.43;;;7.55;;
9563;SDS011;4820;50.870;4.702;2023-10-13T10:01:59;11.95;;;6.65;;
9563;SDS011;4820;50.870;4.702;2023-10-13T10:04:33;10.60;;;6.55;;
9563;SDS011;4820;50.870;4.702;2023-10-13T10:07:06;12.85;;;6.97;;
9563;SDS011;4820;50.870;4.702;2023-10-13T10:09:34;12.82;;;6.57;;
9563;SDS011;4820;50.870;4.702;2023-10-13T10:17:37;12.13;;;6.85;;
9563;SDS011;4820;50.870;4.702;2023-10-13T10:20:07;12.05;;;6.68;;
9563;SDS011;4820;50.870;4.702;2023-10-13T10:22:40;12.75;;;6.63;;
9563;SDS011;4820;50.870;4.702;2023-10-13T10:25:13;12.48;;;6.38;;
9563;SDS011;4820;50.870;4.702;2023-10-13T10:27:55;15.57;;;7.22;;
9563;SDS011;4820;50.870;4.702;2023-10-13T10:30:29;11.57;;;6.57;;
9563;SDS011;4820;50.870;4.702;2023-10-13T10:32:58;12.43;;;6.55;;
9563;SDS011;4820;50.870;4.702;2023-10-13T10:35:24;12.02;;;7.10;;
9563;SDS011;4820;50.870;4.702;2023-10-13T10:38:10;19.05;;;7.05;;
9563;SDS011;4820;50.870;4.702;2023-10-13T10:40:55;18.17;;;7.47;;
9563;SDS011;4820;50.870;4.702;2023-10-13T10:43:29;16.83;;;6.07;;
9563;SDS011;4820;50.870;4.702;2023-10-13T10:46:08;15.07;;;6.18;;
9563;SDS011;4820;50.870;4.702;2023-10-13T10:48:40;13.57;;;6.35;;
9563;SDS011;4820;50.870;4.702;2023-10-13T10:51:11;19.77;;;6.80;;
9563;SDS011;4820;50.870;4.702;2023-10-13T10:53:49;16.85;;;6.20;;
9563;SDS011;4820;50.870;4.702;2023-10-13T10:56:16;16.50;;;6.18;;
9563;SDS011;4820;50.870;4.702;2023-10-13T10:58:52;18.25;;;6.88;;
9563;SDS011;4820;50.870;4.702;2023-10-13T11:04:06;16.02;;;6.50;;
9563;SDS011;4820;50.870;4.702;2023-10-13T11:06:48;16.08;;;6.80;;
9563;SDS011;4820;50.870;4.702;2023-10-13T11:09:30;19.65;;;6.93;;
9563;SDS011;4820;50.870;4.702;2023-10-13T11:14:32;15.55;;;6.75;;
9563;SDS011;4820;50.870;4.702;2023-10-13T11:16:58;17.67;;;7.20;;
9563;SDS011;4820;50.870;4.702;2023-10-13T11:22:13;26.33;;;7.93;;
9563;SDS011;4820;50.870;4.702;2023-10-13T11:25:07;15.23;;;6.82;;
9563;SDS011;4820;50.870;4.702;2023-10-13T11:27:36;18.83;;;7.35;;
9563;SDS011;4820;50.870;4.702;2023-10-13T11:30:15;16.73;;;6.20;;
9563;SDS011;4820;50.870;4.702;2023-10-13T11:33:30;15.65;;;6.65;;
9563;SDS011;4820;50.870;4.702;2023-10-13T11:35:35;22.23;;;7.50;;
9563;SDS011;4820;50.870;4.702;2023-10-13T11:43:30;18.90;;;7.45;;
9563;SDS011;4820;50.870;4.702;2023-10-13T11:46:09;16.15;;;7.00;;
9563;SDS011;4820;50.870;4.702;2023-10-13T11:48:40;15.65;;;6.80;;
9563;SDS011;4820;50.870;4.702;2023-10-13T11:51:12;15.55;;;6.80;;
9563;SDS011;4820;50.870;4.702;2023-10-13T11:53:58;18.58;;;6.93;;
9563;SDS011;4820;50.870;4.702;2023-10-13T11:56:24;19.00;;;7.30;;
9563;SDS011;4820;50.870;4.702;2023-10-13T11:58:50;16.73;;;7.20;;
9563;SDS011;4820;50.870;4.702;2023-10-13T12:01:16;12.70;;;6.55;;
9563;SDS011;4820;50.870;4.702;2023-10-13T12:03:43;15.13;;;6.15;;
9563;SDS011;4820;50.870;4.702;2023-10-13T12:06:29;20.85;;;6.97;;
9563;SDS011;4820;50.870;4.702;2023-10-13T12:09:05;15.00;;;6.28;;
9563;SDS011;4820;50.870;4.702;2023-10-13T12:11:59;16.45;;;6.88;;
9563;SDS011;4820;50.870;4.702;2023-10-13T12:14:26;13.93;;;6.75;;
9563;SDS011;4820;50.870;4.702;2023-10-13T12:17:01;17.50;;;6.55;;
9563;SDS011;4820;50.870;4.702;2023-10-13T12:19:35;20.35;;;7.50;;
9563;SDS011;4820;50.870;4.702;2023-10-13T12:22:04;16.27;;;7.00;;
9563;SDS011;4820;50.870;4.702;2023-10-13T12:24:34;29.25;;;8.65;;
9563;SDS011;4820;50.870;4.702;2023-10-13T12:26:59;19.73;;;6.88;;
9563;SDS011;4820;50.870;4.702;2023-10-13T12:29:26;23.30;;;7.60;;
9563;SDS011;4820;50.870;4.702;2023-10-13T12:31:55;26.77;;;8.00;;
9563;SDS011;4820;50.870;4.702;2023-10-13T12:34:33;18.88;;;7.47;;
9563;SDS011;4820;50.870;4.702;2023-10-13T12:37:18;17.73;;;6.68;;
9563;SDS011;4820;50.870;4.702;2023-10-13T12:40:12;14.40;;;6.28;;
9563;SDS011;4820;50.870;4.702;2023-10-13T12:42:57;17.10;;;6.50;;
9563;SDS011;4820;50.870;4.702;2023-10-13T12:45:42;14.50;;;6.07;;
9563;SDS011;4820;50.870;4.702;2023-10-13T12:48:28;15.30;;;6.38;;
9563;SDS011;4820;50.870;4.702;2023-10-13T12:51:13;16.15;;;6.70;;
9563;SDS011;4820;50.870;4.702;2023-10-13T12:54:05;16.95;;;6.15;;
9563;SDS011;4820;50.870;4.702;2023-10-13T12:56:32;16.70;;;6.97;;
9563;SDS011;4820;50.870;4.702;2023-10-13T12:58:58;14.13;;;6.15;;
9563;SDS011;4820;50.870;4.702;2023-10-13T13:01:24;14.05;;;6.20;;
9563;SDS011;4820;50.870;4.702;2023-10-13T13:03:58;13.38;;;5.85;;
9563;SDS011;4820;50.870;4.702;2023-10-13T13:06:27;10.10;;;5.80;;
9563;SDS011;4820;50.870;4.702;2023-10-13T13:08:58;12.52;;;5.72;;
9563;SDS011;4820;50.870;4.702;2023-10-13T13:11:25;17.48;;;6.13;;
9563;SDS011;4820;50.870;4.702;2023-10-13T13:13:54;11.98;;;5.45;;
9563;SDS011;4820;50.870;4.702;2023-10-13T13:16:20;14.50;;;5.82;;
9563;SDS011;4820;50.870;4.702;2023-10-13T13:18:52;13.60;;;6.03;;
9563;SDS011;4820;50.870;4.702;2023-10-13T13:21:21;13.25;;;6.30;;
9563;SDS011;4820;50.870;4.702;2023-10-13T13:23:50;11.15;;;5.90;;
9563;SDS011;4820;50.870;4.702;2023-10-13T13:26:16;11.07;;;5.47;;
9563;SDS011;4820;50.870;4.702;2023-10-13T13:28:43;10.95;;;5.35;;
9563;SDS011;4820;50.870;4.702;2023-10-13T13:31:25;12.23;;;6.22;;
9563;SDS011;4820;50.870;4.702;2023-10-13T13:33:51;13.57;;;6.15;;
9563;SDS011;4820;50.870;4.702;2023-10-13T13:36:17;10.40;;;5.47;;
9563;SDS011;4820;50.870;4.702;2023-10-13T13:38:44;9.70;;;5.40;;
9563;SDS011;4820;50.870;4.702;2023-10-13T13:41:15;12.77;;;6.13;;
9563;SDS011;4820;50.870;4.702;2023-10-13T13:43:42;12.50;;;5.35;;
9563;SDS011;4820;50.870;4.702;2023-10-13T13:46:18;11.07;;;5.28;;
9563;SDS011;4820;50.870;4.702;2023-10-13T13:48:52;10.60;;;5.85;;
9563;SDS011;4820;50.870;4.702;2023-10-13T13:51:31;13.00;;;5.60;;
9563;SDS011;4820;50.870;4.702;2023-10-13T13:53:59;8.40;;;5.40;;
9563;SDS011;4820;50.870;4.702;2023-10-13T13:56:25;12.93;;;5.63;;
9563;SDS011;4820;50.870;4.702;2023-10-13T13:58:52;12.38;;;5.47;;
9563;SDS011;4820;50.870;4.702;2023-10-13T14:01:20;12.07;;;5.90;;
9563;SDS011;4820;50.870;4.702;2023-10-13T14:03:54;13.35;;;5.47;;
9563;SDS011;4820;50.870;4.702;2023-10-13T14:06:27;13.73;;;5.00;;
9563;SDS011;4820;50.870;4.702;2023-10-13T14:08:57;11.27;;;5.80;;
9563;SDS011;4820;50.870;4.702;2023-10-13T14:11:31;11.32;;;5.72;;
9563;SDS011;4820;50.870;4.702;2023-10-13T14:14:13;11.05;;;5.72;;
9563;SDS011;4820;50.870;4.702;2023-10-13T14:16:52;12.68;;;5.45;;
9563;SDS011;4820;50.870;4.702;2023-10-13T14:19:18;11.05;;;5.38;;
9563;SDS011;4820;50.870;4.702;2023-10-13T14:21:55;10.10;;;5.50;;
9563;SDS011;4820;50.870;4.702;2023-10-13T14:24:24;10.20;;;5.60;;
9563;SDS011;4820;50.870;4.702;2023-10-13T14:26:58;11.23;;;5.55;;
9563;SDS011;4820;50.870;4.702;2023-10-13T14:29:33;11.43;;;5.97;;
9563;SDS011;4820;50.870;4.702;2023-10-13T14:31:59;10.15;;;5.30;;
9563;SDS011;4820;50.870;4.702;2023-10-13T14:34:25;11.88;;;5.30;;
9563;SDS011;4820;50.870;4.702;2023-10-13T14:36:51;12.18;;;5.05;;
9563;SDS011;4820;50.870;4.702;2023-10-13T14:39:19;14.15;;;5.70;;
9563;SDS011;4820;50.870;4.702;2023-10-13T14:41:46;12.05;;;5.82;;
9563;SDS011;4820;50.870;4.702;2023-10-13T14:44:13;12.07;;;6.13;;
9563;SDS011;4820;50.870;4.702;2023-10-13T14:46:39;10.70;;;5.18;;
9563;SDS011;4820;50.870;4.702;2023-10-13T14:49:05;13.25;;;5.45;;
9563;SDS011;4820;50.870;4.702;2023-10-13T14:51:31;16.05;;;5.38;;
9563;SDS011;4820;50.870;4.702;2023-10-13T14:53:57;10.80;;;5.75;;
9563;SDS011;4820;50.870;4.702;2023-10-13T14:56:29;15.30;;;5.57;;
9563;SDS011;4820;50.870;4.702;2023-10-13T14:58:55;8.88;;;5.47;;
9563;SDS011;4820;50.870;4.702;2023-10-13T15:01:21;11.60;;;5.20;;
9563;SDS011;4820;50.870;4.702;2023-10-13T15:03:53;12.82;;;5.88;;
9563;SDS011;4820;50.870;4.702;2023-10-13T15:06:24;15.18;;;5.93;;
9563;SDS011;4820;50.870;4.702;2023-10-13T15:08:55;12.45;;;5.35;;
9563;SDS011;4820;50.870;4.702;2023-10-13T15:11:22;12.90;;;6.20;;
9563;SDS011;4820;50.870;4.702;2023-10-13T15:14:04;11.02;;;5.85;;
9563;SDS011;4820;50.870;4.702;2023-10-13T15:16:31;9.82;;;5.63;;
9563;SDS011;4820;50.870;4.702;2023-10-13T15:19:00;12.27;;;7.05;;
9563;SDS011;4820;50.870;4.702;2023-10-13T15:21:29;12.27;;;6.07;;
9563;SDS011;4820;50.870;4.702;2023-10-13T15:23:59;9.75;;;5.90;;
9563;SDS011;4820;50.870;4.702;2023-10-13T15:26:32;9.35;;;6.55;;
9563;SDS011;4820;50.870;4.702;2023-10-13T15:29:06;12.27;;;6.07;;
9563;SDS011;4820;50.870;4.702;2023-10-13T15:31:37;11.73;;;6.50;;
9563;SDS011;4820;50.870;4.702;2023-10-13T15:34:08;9.65;;;6.20;;
9563;SDS011;4820;50.870;4.702;2023-10-13T15:36:40;10.18;;;5.70;;
9563;SDS011;4820;50.870;4.702;2023-10-13T15:39:10;8.95;;;5.70;;
9563;SDS011;4820;50.870;4.702;2023-10-13T15:41:37;11.40;;;5.53;;
9563;SDS011;4820;50.870;4.702;2023-10-13T15:44:03;14.18;;;6.10;;
9563;SDS011;4820;50.870;4.702;2023-10-13T15:46:34;13.70;;;6.32;;
9563;SDS011;4820;50.870;4.702;2023-10-13T15:49:01;12.30;;;6.13;;
9563;SDS011;4820;50.870;4.702;2023-10-13T15:51:31;9.45;;;5.85;;
9563;SDS011;4820;50.870;4.702;2023-10-13T15:53:59;8.00;;;5.50;;
9563;SDS011;4820;50.870;4.702;2023-10-13T15:56:25;10.60;;;5.97;;
9563;SDS011;4820;50.870;4.702;2023-10-13T15:58:51;11.15;;;6.20;;
9563;SDS011;4820;50.870;4.702;2023-10-13T16:01:17;10.02;;;5.95;;
9563;SDS011;4820;50.870;4.702;2023-10-13T16:03:44;9.27;;;5.65;;
9563;SDS011;4820;50.870;4.702;2023-10-13T16:06:16;11.43;;;6.18;;
9563;SDS011;4820;50.870;4.702;2023-10-13T16:08:43;9.82;;;6.20;;
9563;SDS011;4820;50.870;4.702;2023-10-13T16:11:10;9.50;;;5.90;;
9563;SDS011;4820;50.870;4.702;2023-10-13T16:13:46;11.77;;;6.20;;
9563;SDS011;4820;50.870;4.702;2023-10-13T16:16:20;9.25;;;5.90;;